sensor_id;sensor_type;location;lat;lon;timestamp;temperature;humidity
11140;DHT22;5624;49.388;11.350;2023-01-15T00:00:59;7.20;90.00
11140;DHT22;5624;49.388;11.350;2023-01-15T00:03:25;7.30;89.40
11140;DHT22;5624;49.388;11.350;2023-01-15T00:05:51;7.30;89.40
11140;DHT22;5624;49.388;11.350;2023-01-15T00:08:17;7.30;89.30
11140;DHT22;5624;49.388;11.350;2023-01-15T00:10:42;7.30;89.10
11140;DHT22;5624;49.388;11.350;2023-01-15T00:13:08;7.40;89.10
11140;DHT22;5624;49.388;11.350;2023-01-15T00:15:33;7.40;88.90
11140;DHT22;5624;49.388;11.350;2023-01-15T00:17:59;7.40;89.10
11140;DHT22;5624;49.388;11.350;2023-01-15T00:20:25;7.40;88.60
11140;DHT22;5624;49.388;11.350;2023-01-15T00:22:50;7.50;88.60
11140;DHT22;5624;49.388;11.350;2023-01-15T00:25:16;7.60;87.80
11140;DHT22;5624;49.388;11.350;2023-01-15T00:28:00;7.70;86.90
11140;DHT22;5624;49.388;11.350;2023-01-15T00:30:26;7.80;86.80
11140;DHT22;5624;49.388;11.350;2023-01-15T00:32:51;7.70;87.10
11140;DHT22;5624;49.388;11.350;2023-01-15T00:35:20;7.80;86.70
11140;DHT22;5624;49.388;11.350;2023-01-15T00:37:46;7.80;86.40
11140;DHT22;5624;49.388;11.350;2023-01-15T00:40:12;7.90;85.80
11140;DHT22;5624;49.388;11.350;2023-01-15T00:42:39;7.90;86.30
11140;DHT22;5624;49.388;11.350;2023-01-15T00:45:05;7.90;86.00
11140;DHT22;5624;49.388;11.350;2023-01-15T00:47:39;7.90;85.80
11140;DHT22;5624;49.388;11.350;2023-01-15T00:50:07;8.00;86.10
11140;DHT22;5624;49.388;11.350;2023-01-15T00:52:33;8.00;85.50
11140;DHT22;5624;49.388;11.350;2023-01-15T00:54:59;8.00;85.50
11140;DHT22;5624;49.388;11.350;2023-01-15T00:57:25;8.00;85.40
11140;DHT22;5624;49.388;11.350;2023-01-15T00:59:51;8.10;84.90
11140;DHT22;5624;49.388;11.350;2023-01-15T01:02:17;8.10;84.80
11140;DHT22;5624;49.388;11.350;2023-01-15T01:04:43;8.20;84.80
11140;DHT22;5624;49.388;11.350;2023-01-15T01:07:08;8.20;85.00
11140;DHT22;5624;49.388;11.350;2023-01-15T01:09:34;8.20;84.70
11140;DHT22;5624;49.388;11.350;2023-01-15T01:11:59;8.20;84.40
11140;DHT22;5624;49.388;11.350;2023-01-15T01:14:25;8.20;84.50
11140;DHT22;5624;49.388;11.350;2023-01-15T01:16:51;8.20;84.10
11140;DHT22;5624;49.388;11.350;2023-01-15T01:19:22;8.30;84.10
11140;DHT22;5624;49.388;11.350;2023-01-15T01:21:48;8.30;84.30
11140;DHT22;5624;49.388;11.350;2023-01-15T01:24:17;8.20;84.30
11140;DHT22;5624;49.388;11.350;2023-01-15T01:26:43;8.20;84.30
11140;DHT22;5624;49.388;11.350;2023-01-15T01:29:18;8.20;84.40
11140;DHT22;5624;49.388;11.350;2023-01-15T01:31:44;8.20;84.40
11140;DHT22;5624;49.388;11.350;2023-01-15T01:34:11;8.20;84.20
11140;DHT22;5624;49.388;11.350;2023-01-15T01:36:38;8.20;84.60
11140;DHT22;5624;49.388;11.350;2023-01-15T01:39:05;8.20;84.50
11140;DHT22;5624;49.388;11.350;2023-01-15T01:41:31;8.20;84.50
11140;DHT22;5624;49.388;11.350;2023-01-15T01:46:53;8.30;82.70
11140;DHT22;5624;49.388;11.350;2023-01-15T01:49:19;8.40;82.40
11140;DHT22;5624;49.388;11.350;2023-01-15T01:51:49;8.40;82.20
11140;DHT22;5624;49.388;11.350;2023-01-15T01:54:19;8.30;82.60
11140;DHT22;5624;49.388;11.350;2023-01-15T01:56:47;8.40;81.90
11140;DHT22;5624;49.388;11.350;2023-01-15T01:59:14;8.40;81.70
11140;DHT22;5624;49.388;11.350;2023-01-15T02:01:40;8.30;81.70
11140;DHT22;5624;49.388;11.350;2023-01-15T02:04:08;8.30;81.50
11140;DHT22;5624;49.388;11.350;2023-01-15T02:06:36;8.30;81.30
11140;DHT22;5624;49.388;11.350;2023-01-15T02:09:04;8.30;81.30
11140;DHT22;5624;49.388;11.350;2023-01-15T02:11:31;8.40;80.20
11140;DHT22;5624;49.388;11.350;2023-01-15T02:14:20;8.40;80.80
11140;DHT22;5624;49.388;11.350;2023-01-15T02:16:51;8.40;79.90
11140;DHT22;5624;49.388;11.350;2023-01-15T02:22:06;8.40;78.70
11140;DHT22;5624;49.388;11.350;2023-01-15T02:27:16;8.50;78.00
11140;DHT22;5624;49.388;11.350;2023-01-15T02:32:54;8.60;76.80
11140;DHT22;5624;49.388;11.350;2023-01-15T02:35:27;8.50;77.10
11140;DHT22;5624;49.388;11.350;2023-01-15T02:38:00;8.50;77.40
11140;DHT22;5624;49.388;11.350;2023-01-15T02:40:28;8.50;76.50
11140;DHT22;5624;49.388;11.350;2023-01-15T02:42:56;8.50;77.00
11140;DHT22;5624;49.388;11.350;2023-01-15T02:45:27;8.50;76.50
11140;DHT22;5624;49.388;11.350;2023-01-15T02:47:58;8.50;76.40
11140;DHT22;5624;49.388;11.350;2023-01-15T02:50:31;8.60;75.10
11140;DHT22;5624;49.388;11.350;2023-01-15T02:53:02;8.70;75.00
11140;DHT22;5624;49.388;11.350;2023-01-15T02:55:38;8.70;75.20
11140;DHT22;5624;49.388;11.350;2023-01-15T02:58:10;8.70;75.00
11140;DHT22;5624;49.388;11.350;2023-01-15T03:00:41;8.60;75.40
11140;DHT22;5624;49.388;11.350;2023-01-15T03:06:48;8.60;76.10
11140;DHT22;5624;49.388;11.350;2023-01-15T03:08:53;8.60;76.00
11140;DHT22;5624;49.388;11.350;2023-01-15T03:11:19;8.60;75.50
11140;DHT22;5624;49.388;11.350;2023-01-15T03:24:28;8.60;74.70
11140;DHT22;5624;49.388;11.350;2023-01-15T03:26:56;8.60;75.20
11140;DHT22;5624;49.388;11.350;2023-01-15T03:29:23;8.70;74.80
11140;DHT22;5624;49.388;11.350;2023-01-15T03:31:50;8.70;74.80
11140;DHT22;5624;49.388;11.350;2023-01-15T03:34:16;8.70;74.20
11140;DHT22;5624;49.388;11.350;2023-01-15T03:36:42;8.70;74.50
11140;DHT22;5624;49.388;11.350;2023-01-15T03:39:08;8.70;74.40
11140;DHT22;5624;49.388;11.350;2023-01-15T03:41:40;8.80;74.10
11140;DHT22;5624;49.388;11.350;2023-01-15T03:44:26;8.80;74.00
11140;DHT22;5624;49.388;11.350;2023-01-15T03:57:56;8.80;73.50
11140;DHT22;5624;49.388;11.350;2023-01-15T04:00:27;8.80;73.80
11140;DHT22;5624;49.388;11.350;2023-01-15T04:02:55;8.80;73.30
11140;DHT22;5624;49.388;11.350;2023-01-15T04:05:23;8.90;73.40
11140;DHT22;5624;49.388;11.350;2023-01-15T04:07:50;8.90;73.20
11140;DHT22;5624;49.388;11.350;2023-01-15T04:10:17;8.90;73.30
11140;DHT22;5624;49.388;11.350;2023-01-15T04:12:42;8.90;73.40
11140;DHT22;5624;49.388;11.350;2023-01-15T04:15:10;8.90;73.70
11140;DHT22;5624;49.388;11.350;2023-01-15T04:17:35;8.90;73.80
11140;DHT22;5624;49.388;11.350;2023-01-15T04:20:01;9.00;73.90
11140;DHT22;5624;49.388;11.350;2023-01-15T04:22:27;9.00;73.80
11140;DHT22;5624;49.388;11.350;2023-01-15T04:24:52;9.00;74.30
11140;DHT22;5624;49.388;11.350;2023-01-15T04:27:19;9.10;74.90
11140;DHT22;5624;49.388;11.350;2023-01-15T04:29:45;9.10;74.70
11140;DHT22;5624;49.388;11.350;2023-01-15T04:32:10;9.10;75.40
11140;DHT22;5624;49.388;11.350;2023-01-15T04:34:36;9.10;75.80
11140;DHT22;5624;49.388;11.350;2023-01-15T04:37:02;9.10;76.10
11140;DHT22;5624;49.388;11.350;2023-01-15T04:39:27;9.10;75.90
11140;DHT22;5624;49.388;11.350;2023-01-15T04:41:53;9.10;76.70
11140;DHT22;5624;49.388;11.350;2023-01-15T04:44:37;9.10;76.70
11140;DHT22;5624;49.388;11.350;2023-01-15T04:47:04;9.10;77.10
11140;DHT22;5624;49.388;11.350;2023-01-15T04:49:30;9.10;77.00
11140;DHT22;5624;49.388;11.350;2023-01-15T04:51:55;9.00;77.70
11140;DHT22;5624;49.388;11.350;2023-01-15T04:54:21;9.00;78.20
11140;DHT22;5624;49.388;11.350;2023-01-15T04:56:49;9.00;78.60
11140;DHT22;5624;49.388;11.350;2023-01-15T04:59:16;9.00;78.90
11140;DHT22;5624;49.388;11.350;2023-01-15T05:01:42;9.00;79.40
11140;DHT22;5624;49.388;11.350;2023-01-15T05:04:08;9.00;80.00
11140;DHT22;5624;49.388;11.350;2023-01-15T05:06:34;9.00;80.50
11140;DHT22;5624;49.388;11.350;2023-01-15T05:09:00;9.00;81.10
11140;DHT22;5624;49.388;11.350;2023-01-15T05:11:27;8.90;81.60
11140;DHT22;5624;49.388;11.350;2023-01-15T05:13:53;8.90;81.50
11140;DHT22;5624;49.388;11.350;2023-01-15T05:16:25;8.90;81.90
11140;DHT22;5624;49.388;11.350;2023-01-15T05:18:53;8.90;81.50
11140;DHT22;5624;49.388;11.350;2023-01-15T05:23:47;9.00;81.00
11140;DHT22;5624;49.388;11.350;2023-01-15T05:26:13;8.90;81.30
11140;DHT22;5624;49.388;11.350;2023-01-15T05:28:39;8.90;81.40
11140;DHT22;5624;49.388;11.350;2023-01-15T05:31:13;8.90;81.40
11140;DHT22;5624;49.388;11.350;2023-01-15T05:33:39;9.00;80.80
11140;DHT22;5624;49.388;11.350;2023-01-15T05:36:08;9.00;80.80
11140;DHT22;5624;49.388;11.350;2023-01-15T05:38:33;9.00;80.50
11140;DHT22;5624;49.388;11.350;2023-01-15T05:41:03;9.00;81.00
11140;DHT22;5624;49.388;11.350;2023-01-15T05:43:48;9.00;80.90
11140;DHT22;5624;49.388;11.350;2023-01-15T05:46:14;9.00;81.00
11140;DHT22;5624;49.388;11.350;2023-01-15T05:48:40;9.00;80.90
11140;DHT22;5624;49.388;11.350;2023-01-15T05:51:05;9.00;80.70
11140;DHT22;5624;49.388;11.350;2023-01-15T05:53:31;9.00;80.50
11140;DHT22;5624;49.388;11.350;2023-01-15T05:56:00;9.00;80.20
11140;DHT22;5624;49.388;11.350;2023-01-15T05:58:26;9.00;80.50
11140;DHT22;5624;49.388;11.350;2023-01-15T06:00:51;9.00;80.60
11140;DHT22;5624;49.388;11.350;2023-01-15T06:03:20;9.10;80.10
11140;DHT22;5624;49.388;11.350;2023-01-15T06:05:50;9.10;80.30
11140;DHT22;5624;49.388;11.350;2023-01-15T06:08:15;9.10;80.10
11140;DHT22;5624;49.388;11.350;2023-01-15T06:10:43;9.20;79.90
11140;DHT22;5624;49.388;11.350;2023-01-15T06:13:09;9.10;80.50
11140;DHT22;5624;49.388;11.350;2023-01-15T06:15:35;9.10;80.90
11140;DHT22;5624;49.388;11.350;2023-01-15T06:18:01;9.10;80.60
11140;DHT22;5624;49.388;11.350;2023-01-15T06:20:26;9.10;80.60
11140;DHT22;5624;49.388;11.350;2023-01-15T06:22:52;9.20;80.30
11140;DHT22;5624;49.388;11.350;2023-01-15T06:25:17;9.20;80.10
11140;DHT22;5624;49.388;11.350;2023-01-15T06:27:43;9.30;79.50
11140;DHT22;5624;49.388;11.350;2023-01-15T06:30:10;9.30;80.50
11140;DHT22;5624;49.388;11.350;2023-01-15T06:32:36;9.30;81.30
11140;DHT22;5624;49.388;11.350;2023-01-15T06:35:01;9.20;82.40
11140;DHT22;5624;49.388;11.350;2023-01-15T06:37:27;9.20;82.50
11140;DHT22;5624;49.388;11.350;2023-01-15T06:39:53;9.20;82.70
11140;DHT22;5624;49.388;11.350;2023-01-15T06:42:18;9.20;82.90
11140;DHT22;5624;49.388;11.350;2023-01-15T06:45:03;9.20;83.80
11140;DHT22;5624;49.388;11.350;2023-01-15T06:47:47;9.10;82.90
11140;DHT22;5624;49.388;11.350;2023-01-15T06:50:13;9.10;82.70
11140;DHT22;5624;49.388;11.350;2023-01-15T06:52:40;9.20;83.00
11140;DHT22;5624;49.388;11.350;2023-01-15T06:55:06;9.20;83.00
11140;DHT22;5624;49.388;11.350;2023-01-15T06:57:32;9.10;83.80
11140;DHT22;5624;49.388;11.350;2023-01-15T06:59:58;9.00;85.00
11140;DHT22;5624;49.388;11.350;2023-01-15T07:02:23;9.00;85.40
11140;DHT22;5624;49.388;11.350;2023-01-15T07:04:50;9.00;86.40
11140;DHT22;5624;49.388;11.350;2023-01-15T07:07:17;8.90;86.90
11140;DHT22;5624;49.388;11.350;2023-01-15T07:09:43;8.80;88.60
11140;DHT22;5624;49.388;11.350;2023-01-15T07:12:09;8.80;90.00
11140;DHT22;5624;49.388;11.350;2023-01-15T07:14:34;8.50;92.70
11140;DHT22;5624;49.388;11.350;2023-01-15T07:17:01;8.40;94.10
11140;DHT22;5624;49.388;11.350;2023-01-15T07:19:27;8.10;95.80
11140;DHT22;5624;49.388;11.350;2023-01-15T07:21:53;8.00;96.80
11140;DHT22;5624;49.388;11.350;2023-01-15T07:24:18;7.90;97.30
11140;DHT22;5624;49.388;11.350;2023-01-15T07:26:44;7.80;98.00
11140;DHT22;5624;49.388;11.350;2023-01-15T07:29:10;7.70;98.50
11140;DHT22;5624;49.388;11.350;2023-01-15T07:31:36;7.60;99.10
11140;DHT22;5624;49.388;11.350;2023-01-15T07:34:03;7.60;99.30
11140;DHT22;5624;49.388;11.350;2023-01-15T07:36:29;7.50;99.80
11140;DHT22;5624;49.388;11.350;2023-01-15T07:38:55;7.50;99.80
11140;DHT22;5624;49.388;11.350;2023-01-15T07:41:20;7.40;99.90
11140;DHT22;5624;49.388;11.350;2023-01-15T07:44:05;7.40;99.90
11140;DHT22;5624;49.388;11.350;2023-01-15T07:46:49;7.30;99.90
11140;DHT22;5624;49.388;11.350;2023-01-15T07:49:33;7.30;99.90
11140;DHT22;5624;49.388;11.350;2023-01-15T07:52:20;7.30;99.90
11140;DHT22;5624;49.388;11.350;2023-01-15T07:54:47;7.30;99.90
11140;DHT22;5624;49.388;11.350;2023-01-15T07:57:15;7.30;99.90
11140;DHT22;5624;49.388;11.350;2023-01-15T07:59:42;7.20;99.90
11140;DHT22;5624;49.388;11.350;2023-01-15T08:02:07;7.20;99.90
11140;DHT22;5624;49.388;11.350;2023-01-15T08:04:33;7.20;99.90
11140;DHT22;5624;49.388;11.350;2023-01-15T08:07:00;7.10;99.90
11140;DHT22;5624;49.388;11.350;2023-01-15T08:09:27;7.10;99.90
11140;DHT22;5624;49.388;11.350;2023-01-15T08:11:53;7.00;99.90
11140;DHT22;5624;49.388;11.350;2023-01-15T08:14:37;7.00;99.90
11140;DHT22;5624;49.388;11.350;2023-01-15T08:17:21;6.90;99.90
11140;DHT22;5624;49.388;11.350;2023-01-15T08:19:47;6.90;99.90
11140;DHT22;5624;49.388;11.350;2023-01-15T08:22:12;6.90;99.90
11140;DHT22;5624;49.388;11.350;2023-01-15T08:24:38;6.80;99.90
11140;DHT22;5624;49.388;11.350;2023-01-15T08:27:04;6.80;99.90
11140;DHT22;5624;49.388;11.350;2023-01-15T08:29:29;6.80;99.90
11140;DHT22;5624;49.388;11.350;2023-01-15T08:31:55;6.80;99.90
11140;DHT22;5624;49.388;11.350;2023-01-15T08:34:21;6.70;99.90
11140;DHT22;5624;49.388;11.350;2023-01-15T08:36:47;6.50;98.30
11140;DHT22;5624;49.388;11.350;2023-01-15T08:39:14;6.10;98.60
11140;DHT22;5624;49.388;11.350;2023-01-15T08:41:39;5.90;99.60
11140;DHT22;5624;49.388;11.350;2023-01-15T08:44:05;5.90;99.70
11140;DHT22;5624;49.388;11.350;2023-01-15T08:46:31;5.70;99.90
11140;DHT22;5624;49.388;11.350;2023-01-15T08:48:56;5.60;99.90
11140;DHT22;5624;49.388;11.350;2023-01-15T08:51:22;5.50;99.90
11140;DHT22;5624;49.388;11.350;2023-01-15T08:53:48;5.50;99.90
11140;DHT22;5624;49.388;11.350;2023-01-15T08:56:15;5.40;99.90
11140;DHT22;5624;49.388;11.350;2023-01-15T08:58:42;5.30;99.90
11140;DHT22;5624;49.388;11.350;2023-01-15T09:01:09;5.30;99.90
11140;DHT22;5624;49.388;11.350;2023-01-15T09:03:36;5.20;99.90
11140;DHT22;5624;49.388;11.350;2023-01-15T09:06:03;5.20;99.90
11140;DHT22;5624;49.388;11.350;2023-01-15T09:08:30;5.10;99.90
11140;DHT22;5624;49.388;11.350;2023-01-15T09:11:00;5.10;99.90
11140;DHT22;5624;49.388;11.350;2023-01-15T09:13:28;4.90;99.90
11140;DHT22;5624;49.388;11.350;2023-01-15T09:15:58;4.70;99.90
11140;DHT22;5624;49.388;11.350;2023-01-15T09:18:24;4.70;99.90
11140;DHT22;5624;49.388;11.350;2023-01-15T09:20:50;4.70;99.90
11140;DHT22;5624;49.388;11.350;2023-01-15T09:23:15;4.60;99.90
11140;DHT22;5624;49.388;11.350;2023-01-15T09:25:57;4.60;99.90
11140;DHT22;5624;49.388;11.350;2023-01-15T09:28:23;4.60;99.90
11140;DHT22;5624;49.388;11.350;2023-01-15T09:30:49;4.50;99.90
11140;DHT22;5624;49.388;11.350;2023-01-15T09:33:15;4.60;99.90
11140;DHT22;5624;49.388;11.350;2023-01-15T09:35:44;4.60;99.90
11140;DHT22;5624;49.388;11.350;2023-01-15T09:38:15;4.60;99.90
11140;DHT22;5624;49.388;11.350;2023-01-15T09:46:55;4.70;99.90
11140;DHT22;5624;49.388;11.350;2023-01-15T09:55:24;4.60;99.90
11140;DHT22;5624;49.388;11.350;2023-01-15T09:57:59;4.60;99.90
11140;DHT22;5624;49.388;11.350;2023-01-15T10:00:32;4.40;99.50
11140;DHT22;5624;49.388;11.350;2023-01-15T10:03:06;4.40;99.50
11140;DHT22;5624;49.388;11.350;2023-01-15T10:08:16;4.50;99.90
11140;DHT22;5624;49.388;11.350;2023-01-15T10:10:46;4.50;99.80
11140;DHT22;5624;49.388;11.350;2023-01-15T10:13:38;4.60;98.90
11140;DHT22;5624;49.388;11.350;2023-01-15T10:16:06;4.50;98.60
11140;DHT22;5624;49.388;11.350;2023-01-15T10:18:32;4.40;98.80
11140;DHT22;5624;49.388;11.350;2023-01-15T10:26:54;4.40;99.00
11140;DHT22;5624;49.388;11.350;2023-01-15T10:29:43;4.40;98.40
11140;DHT22;5624;49.388;11.350;2023-01-15T10:34:48;4.50;99.00
11140;DHT22;5624;49.388;11.350;2023-01-15T10:43:00;4.40;98.40
11140;DHT22;5624;49.388;11.350;2023-01-15T10:45:31;4.30;98.10
11140;DHT22;5624;49.388;11.350;2023-01-15T10:48:13;4.20;97.20
11140;DHT22;5624;49.388;11.350;2023-01-15T10:50:44;4.30;98.40
11140;DHT22;5624;49.388;11.350;2023-01-15T10:56:09;4.30;98.60
11140;DHT22;5624;49.388;11.350;2023-01-15T10:58:47;4.20;97.70
11140;DHT22;5624;49.388;11.350;2023-01-15T11:01:18;4.20;98.10
11140;DHT22;5624;49.388;11.350;2023-01-15T11:03:48;4.20;98.60
11140;DHT22;5624;49.388;11.350;2023-01-15T11:06:16;4.20;98.80
11140;DHT22;5624;49.388;11.350;2023-01-15T11:08:53;4.20;98.90
11140;DHT22;5624;49.388;11.350;2023-01-15T11:11:35;4.20;98.60
11140;DHT22;5624;49.388;11.350;2023-01-15T11:14:20;4.20;98.80
11140;DHT22;5624;49.388;11.350;2023-01-15T11:17:12;4.20;99.30
11140;DHT22;5624;49.388;11.350;2023-01-15T11:19:57;4.30;99.90
11140;DHT22;5624;49.388;11.350;2023-01-15T11:22:23;4.40;99.70
11140;DHT22;5624;49.388;11.350;2023-01-15T11:24:50;4.40;99.90
11140;DHT22;5624;49.388;11.350;2023-01-15T11:27:25;4.50;99.90
11140;DHT22;5624;49.388;11.350;2023-01-15T11:29:57;4.50;99.40
11140;DHT22;5624;49.388;11.350;2023-01-15T11:35:00;4.60;98.90
11140;DHT22;5624;49.388;11.350;2023-01-15T11:37:27;4.60;98.70
11140;DHT22;5624;49.388;11.350;2023-01-15T11:40:00;4.50;99.10
11140;DHT22;5624;49.388;11.350;2023-01-15T11:42:36;4.50;99.40
11140;DHT22;5624;49.388;11.350;2023-01-15T11:45:22;4.60;99.10
11140;DHT22;5624;49.388;11.350;2023-01-15T11:48:19;4.60;99.30
11140;DHT22;5624;49.388;11.350;2023-01-15T11:51:09;4.70;99.20
11140;DHT22;5624;49.388;11.350;2023-01-15T11:53:50;4.60;99.00
11140;DHT22;5624;49.388;11.350;2023-01-15T11:56:21;4.60;99.90
11140;DHT22;5624;49.388;11.350;2023-01-15T11:58:51;4.70;99.50
11140;DHT22;5624;49.388;11.350;2023-01-15T12:01:27;4.60;99.10
11140;DHT22;5624;49.388;11.350;2023-01-15T12:03:59;4.70;99.00
11140;DHT22;5624;49.388;11.350;2023-01-15T12:06:25;4.70;97.70
11140;DHT22;5624;49.388;11.350;2023-01-15T12:12:29;4.70;98.10
11140;DHT22;5624;49.388;11.350;2023-01-15T12:15:37;4.80;98.50
11140;DHT22;5624;49.388;11.350;2023-01-15T12:18:30;4.80;98.80
11140;DHT22;5624;49.388;11.350;2023-01-15T12:23:53;4.80;97.60
11140;DHT22;5624;49.388;11.350;2023-01-15T12:26:33;4.80;97.50
11140;DHT22;5624;49.388;11.350;2023-01-15T12:29:13;4.60;96.30
11140;DHT22;5624;49.388;11.350;2023-01-15T12:32:04;4.50;97.50
11140;DHT22;5624;49.388;11.350;2023-01-15T12:37:26;4.50;97.60
11140;DHT22;5624;49.388;11.350;2023-01-15T12:42:49;4.40;96.90
11140;DHT22;5624;49.388;11.350;2023-01-15T12:45:41;4.50;97.20
11140;DHT22;5624;49.388;11.350;2023-01-15T12:50:55;4.30;96.60
11140;DHT22;5624;49.388;11.350;2023-01-15T12:53:24;4.30;96.60
11140;DHT22;5624;49.388;11.350;2023-01-15T12:56:04;4.30;96.20
11140;DHT22;5624;49.388;11.350;2023-01-15T13:06:41;4.30;96.80
11140;DHT22;5624;49.388;11.350;2023-01-15T13:11:48;4.10;96.20
11140;DHT22;5624;49.388;11.350;2023-01-15T13:14:18;4.10;96.80
11140;DHT22;5624;49.388;11.350;2023-01-15T13:19:28;4.20;96.80
11140;DHT22;5624;49.388;11.350;2023-01-15T13:22:02;4.10;96.70
11140;DHT22;5624;49.388;11.350;2023-01-15T13:24:57;4.10;96.00
11140;DHT22;5624;49.388;11.350;2023-01-15T13:30:42;4.00;96.40
11140;DHT22;5624;49.388;11.350;2023-01-15T13:33:25;4.00;96.60
11140;DHT22;5624;49.388;11.350;2023-01-15T13:38:50;3.90;96.10
11140;DHT22;5624;49.388;11.350;2023-01-15T13:41:21;3.90;96.80
11140;DHT22;5624;49.388;11.350;2023-01-15T13:44:22;3.80;97.30
11140;DHT22;5624;49.388;11.350;2023-01-15T13:47:04;3.70;96.10
11140;DHT22;5624;49.388;11.350;2023-01-15T13:49:33;3.60;96.30
11140;DHT22;5624;49.388;11.350;2023-01-15T13:52:01;3.60;96.80
11140;DHT22;5624;49.388;11.350;2023-01-15T13:54:29;3.60;96.40
11140;DHT22;5624;49.388;11.350;2023-01-15T13:57:22;3.60;96.50
11140;DHT22;5624;49.388;11.350;2023-01-15T13:59:49;3.60;96.40
11140;DHT22;5624;49.388;11.350;2023-01-15T14:02:51;3.50;95.60
11140;DHT22;5624;49.388;11.350;2023-01-15T14:07:50;3.50;95.10
11140;DHT22;5624;49.388;11.350;2023-01-15T14:34:32;3.40;93.40
11140;DHT22;5624;49.388;11.350;2023-01-15T14:37:06;3.40;93.50
11140;DHT22;5624;49.388;11.350;2023-01-15T14:42:25;3.40;93.30
11140;DHT22;5624;49.388;11.350;2023-01-15T14:45:28;3.30;92.40
11140;DHT22;5624;49.388;11.350;2023-01-15T14:47:59;3.30;93.00
11140;DHT22;5624;49.388;11.350;2023-01-15T14:53:23;3.20;93.10
11140;DHT22;5624;49.388;11.350;2023-01-15T15:01:40;3.20;93.50
11140;DHT22;5624;49.388;11.350;2023-01-15T15:06:56;3.10;94.30
11140;DHT22;5624;49.388;11.350;2023-01-15T15:09:34;3.00;93.90
11140;DHT22;5624;49.388;11.350;2023-01-15T15:23:58;3.00;93.10
11140;DHT22;5624;49.388;11.350;2023-01-15T15:26:29;3.00;92.80
11140;DHT22;5624;49.388;11.350;2023-01-15T15:31:25;3.00;93.00
11140;DHT22;5624;49.388;11.350;2023-01-15T15:33:55;3.00;92.60
11140;DHT22;5624;49.388;11.350;2023-01-15T15:36:23;3.00;92.30
11140;DHT22;5624;49.388;11.350;2023-01-15T15:38:53;2.80;91.50
11140;DHT22;5624;49.388;11.350;2023-01-15T15:41:21;2.90;91.90
11140;DHT22;5624;49.388;11.350;2023-01-15T15:44:16;2.90;90.30
11140;DHT22;5624;49.388;11.350;2023-01-15T15:47:22;2.80;90.50
11140;DHT22;5624;49.388;11.350;2023-01-15T15:50:21;2.80;90.70
11140;DHT22;5624;49.388;11.350;2023-01-15T15:52:49;2.80;90.90
11140;DHT22;5624;49.388;11.350;2023-01-15T15:55:16;2.80;90.80
11140;DHT22;5624;49.388;11.350;2023-01-15T15:57:47;2.70;89.90
11140;DHT22;5624;49.388;11.350;2023-01-15T16:00:30;2.60;90.40
11140;DHT22;5624;49.388;11.350;2023-01-15T16:03:03;2.50;91.10
11140;DHT22;5624;49.388;11.350;2023-01-15T16:05:30;2.40;90.30
11140;DHT22;5624;49.388;11.350;2023-01-15T16:08:19;2.30;90.20
11140;DHT22;5624;49.388;11.350;2023-01-15T16:10:53;2.40;91.20
11140;DHT22;5624;49.388;11.350;2023-01-15T16:13:43;2.30;91.10
11140;DHT22;5624;49.388;11.350;2023-01-15T16:16:10;2.40;90.50
11140;DHT22;5624;49.388;11.350;2023-01-15T16:21:07;2.30;90.40
11140;DHT22;5624;49.388;11.350;2023-01-15T16:23:33;2.30;90.30
11140;DHT22;5624;49.388;11.350;2023-01-15T16:26:15;2.20;90.40
11140;DHT22;5624;49.388;11.350;2023-01-15T16:28:49;2.20;90.40
11140;DHT22;5624;49.388;11.350;2023-01-15T16:31:17;2.10;90.70
11140;DHT22;5624;49.388;11.350;2023-01-15T16:33:44;2.00;91.30
11140;DHT22;5624;49.388;11.350;2023-01-15T16:36:10;1.90;91.70
11140;DHT22;5624;49.388;11.350;2023-01-15T16:38:40;1.90;92.10
11140;DHT22;5624;49.388;11.350;2023-01-15T16:41:14;1.80;92.50
11140;DHT22;5624;49.388;11.350;2023-01-15T16:43:53;1.80;92.30
11140;DHT22;5624;49.388;11.350;2023-01-15T16:46:20;1.70;92.50
11140;DHT22;5624;49.388;11.350;2023-01-15T16:48:47;1.70;92.70
11140;DHT22;5624;49.388;11.350;2023-01-15T16:53:51;1.60;93.20
11140;DHT22;5624;49.388;11.350;2023-01-15T16:56:47;1.50;93.20
11140;DHT22;5624;49.388;11.350;2023-01-15T16:59:52;1.60;93.50
11140;DHT22;5624;49.388;11.350;2023-01-15T17:02:13;1.50;93.70
11140;DHT22;5624;49.388;11.350;2023-01-15T17:04:42;1.40;94.10
11140;DHT22;5624;49.388;11.350;2023-01-15T17:09:48;1.50;94.80
11140;DHT22;5624;49.388;11.350;2023-01-15T17:12:33;1.50;94.50
11140;DHT22;5624;49.388;11.350;2023-01-15T17:17:42;1.40;94.30
11140;DHT22;5624;49.388;11.350;2023-01-15T17:20:09;1.30;94.80
11140;DHT22;5624;49.388;11.350;2023-01-15T17:22:35;1.30;94.90
11140;DHT22;5624;49.388;11.350;2023-01-15T17:25:02;1.20;95.20
11140;DHT22;5624;49.388;11.350;2023-01-15T17:27:44;1.10;95.90
11140;DHT22;5624;49.388;11.350;2023-01-15T17:30:11;1.10;96.30
11140;DHT22;5624;49.388;11.350;2023-01-15T17:32:37;1.00;96.60
11140;DHT22;5624;49.388;11.350;2023-01-15T17:35:27;1.10;96.50
11140;DHT22;5624;49.388;11.350;2023-01-15T17:37:53;1.00;97.20
11140;DHT22;5624;49.388;11.350;2023-01-15T17:40:19;1.00;97.50
11140;DHT22;5624;49.388;11.350;2023-01-15T17:42:45;1.10;97.60
11140;DHT22;5624;49.388;11.350;2023-01-15T17:47:44;1.00;96.70
11140;DHT22;5624;49.388;11.350;2023-01-15T17:50:10;1.00;97.10
11140;DHT22;5624;49.388;11.350;2023-01-15T17:52:37;1.00;96.90
11140;DHT22;5624;49.388;11.350;2023-01-15T17:55:03;0.90;96.90
11140;DHT22;5624;49.388;11.350;2023-01-15T17:57:47;0.90;97.20
11140;DHT22;5624;49.388;11.350;2023-01-15T18:00:31;0.80;97.30
11140;DHT22;5624;49.388;11.350;2023-01-15T18:03:19;0.80;97.30
11140;DHT22;5624;49.388;11.350;2023-01-15T18:06:07;0.80;97.70
11140;DHT22;5624;49.388;11.350;2023-01-15T18:08:34;0.90;98.20
11140;DHT22;5624;49.388;11.350;2023-01-15T18:11:00;0.90;97.90
11140;DHT22;5624;49.388;11.350;2023-01-15T18:13:26;1.00;97.60
11140;DHT22;5624;49.388;11.350;2023-01-15T18:15:51;1.00;97.20
11140;DHT22;5624;49.388;11.350;2023-01-15T18:18:17;1.10;97.00
11140;DHT22;5624;49.388;11.350;2023-01-15T18:20:43;1.20;96.30
11140;DHT22;5624;49.388;11.350;2023-01-15T18:23:09;1.20;95.60
11140;DHT22;5624;49.388;11.350;2023-01-15T18:25:35;1.30;95.20
11140;DHT22;5624;49.388;11.350;2023-01-15T18:28:01;1.30;95.00
11140;DHT22;5624;49.388;11.350;2023-01-15T18:30:26;1.30;94.60
11140;DHT22;5624;49.388;11.350;2023-01-15T18:32:52;1.40;94.00
11140;DHT22;5624;49.388;11.350;2023-01-15T18:35:18;1.40;93.20
11140;DHT22;5624;49.388;11.350;2023-01-15T18:37:44;1.50;93.00
11140;DHT22;5624;49.388;11.350;2023-01-15T18:40:10;1.50;92.30
11140;DHT22;5624;49.388;11.350;2023-01-15T18:42:40;1.50;92.20
11140;DHT22;5624;49.388;11.350;2023-01-15T18:45:24;1.50;92.30
11140;DHT22;5624;49.388;11.350;2023-01-15T18:48:09;1.50;92.20
11140;DHT22;5624;49.388;11.350;2023-01-15T18:50:35;1.50;92.00
11140;DHT22;5624;49.388;11.350;2023-01-15T18:53:01;1.50;91.40
11140;DHT22;5624;49.388;11.350;2023-01-15T18:55:26;1.50;91.30
11140;DHT22;5624;49.388;11.350;2023-01-15T18:57:53;1.50;91.00
11140;DHT22;5624;49.388;11.350;2023-01-15T19:00:20;1.50;90.30
11140;DHT22;5624;49.388;11.350;2023-01-15T19:02:46;1.50;90.00